createdAt,value
2018-10-05T00:00:56.813Z,97016.67
2018-10-05T00:03:25.379Z,97021.23
2018-10-05T00:05:53.835Z,97018.45
2018-10-05T00:08:22.123Z,97013.45
2018-10-05T00:10:50.685Z,97012.31
2018-10-05T00:13:19.079Z,97004.52
2018-10-05T00:15:47.349Z,96998.90
2018-10-05T00:18:15.633Z,96999.58
2018-10-05T00:20:43.991Z,96998.32
2018-10-05T00:23:12.559Z,97000.38
2018-10-05T00:25:40.978Z,97002.39
2018-10-05T00:28:09.285Z,97000.00
2018-10-05T00:30:37.615Z,96999.61
2018-10-05T00:33:05.944Z,97003.61
2018-10-05T00:35:34.343Z,96999.83
2018-10-05T00:38:02.673Z,97005.23
2018-10-05T00:40:30.899Z,96995.80
2018-10-05T00:42:59.297Z,96998.27
2018-10-05T00:45:27.556Z,96998.58
2018-10-05T00:47:55.906Z,97000.33
2018-10-05T00:50:24.339Z,96996.19
2018-10-05T00:52:52.727Z,96994.62
2018-10-05T00:55:20.995Z,96997.84
2018-10-05T00:57:49.453Z,96999.09
2018-10-05T01:00:17.786Z,97002.05
2018-10-05T01:02:46.353Z,97006.41
2018-10-05T01:05:14.789Z,97006.27
2018-10-05T01:07:43.066Z,97004.59
2018-10-05T01:10:11.468Z,96998.52
2018-10-05T01:12:40.003Z,96996.84
2018-10-05T01:15:08.361Z,96998.48
2018-10-05T01:17:36.659Z,96992.88
2018-10-05T01:20:05.085Z,96996.20
2018-10-05T01:22:33.387Z,96996.05
2018-10-05T01:25:01.689Z,97000.84
2018-10-05T01:27:30.274Z,96998.63
2018-10-05T01:29:58.605Z,97001.38
2018-10-05T01:32:26.996Z,96998.23
2018-10-05T01:34:55.618Z,97005.05
2018-10-05T01:37:23.982Z,96994.77
2018-10-05T01:39:52.258Z,96997.43
2018-10-05T01:42:20.577Z,96999.59
2018-10-05T01:44:48.854Z,97001.51
2018-10-05T01:47:17.162Z,96999.83
2018-10-05T01:49:45.481Z,97001.55
2018-10-05T01:52:13.819Z,97000.13
2018-10-05T01:54:42.214Z,97003.91
2018-10-05T01:57:10.814Z,97000.09
2018-10-05T01:59:39.154Z,97000.61
2018-10-05T02:02:07.574Z,96997.19
2018-10-05T02:04:36.066Z,96996.23
2018-10-05T02:07:04.554Z,96995.77
2018-10-05T02:09:32.909Z,96997.64
2018-10-05T02:12:01.217Z,96990.21
2018-10-05T02:14:29.559Z,96993.17
2018-10-05T02:16:58.037Z,96992.08
2018-10-05T02:19:26.444Z,96994.27
2018-10-05T02:21:54.866Z,96990.80
2018-10-05T02:24:23.174Z,96991.48
2018-10-05T02:26:51.481Z,96991.70
2018-10-05T02:29:19.818Z,96991.46
2018-10-05T02:31:48.121Z,96995.11
2018-10-05T02:34:16.502Z,96993.61
2018-10-05T02:36:44.786Z,96991.36
2018-10-05T02:39:13.785Z,96988.72
2018-10-05T02:41:42.565Z,96989.31
2018-10-05T02:44:10.810Z,96981.03
2018-10-05T02:46:39.203Z,96985.59
2018-10-05T02:49:07.782Z,96989.16
2018-10-05T02:51:36.155Z,96985.51
2018-10-05T02:54:04.532Z,96982.02
2018-10-05T02:56:32.998Z,96975.00
2018-10-05T02:59:01.286Z,96980.60
2018-10-05T03:01:40.938Z,96977.87
2018-10-05T03:04:09.301Z,96976.80
2018-10-05T03:06:37.686Z,96971.44
2018-10-05T03:09:07.203Z,96970.39
2018-10-05T03:11:35.646Z,96966.43
2018-10-05T03:14:04.125Z,96967.70
2018-10-05T03:16:32.702Z,96962.12
2018-10-05T03:19:01.034Z,96960.25
2018-10-05T03:21:29.383Z,96960.16
2018-10-05T03:23:57.698Z,96959.12
2018-10-05T03:26:25.986Z,96965.39
2018-10-05T03:28:54.317Z,96962.03
2018-10-05T03:31:23.027Z,96964.62
2018-10-05T03:33:51.389Z,96959.08
2018-10-05T03:36:19.769Z,96960.66
2018-10-05T03:38:48.177Z,96950.91
2018-10-05T03:41:16.516Z,96950.65
2018-10-05T03:43:44.938Z,96951.19
2018-10-05T03:46:13.326Z,96943.73
2018-10-05T03:48:41.642Z,96942.59
2018-10-05T03:51:09.969Z,96936.25
2018-10-05T03:53:38.393Z,96937.61
2018-10-05T03:56:06.902Z,96929.88
2018-10-05T03:58:35.270Z,96930.29
2018-10-05T04:01:03.564Z,96924.05
2018-10-05T04:03:31.937Z,96929.11
2018-10-05T04:06:00.202Z,96922.91
2018-10-05T04:08:28.780Z,96931.51
2018-10-05T04:10:57.177Z,96924.41
2018-10-05T04:13:25.554Z,96921.31
2018-10-05T04:15:53.974Z,96925.27
2018-10-05T04:18:22.306Z,96924.99
2018-10-05T04:20:50.697Z,96926.45
2018-10-05T04:23:19.101Z,96920.44
2018-10-05T04:25:47.374Z,96923.02
2018-10-05T04:28:15.643Z,96923.08
2018-10-05T04:30:44.040Z,96923.13
2018-10-05T04:33:12.330Z,96925.44
2018-10-05T04:35:40.714Z,96924.12
2018-10-05T04:38:08.963Z,96926.29
2018-10-05T04:40:37.326Z,96921.53
2018-10-05T04:43:05.998Z,96920.30
2018-10-05T04:45:34.578Z,96923.75
2018-10-05T04:48:02.942Z,96924.44
2018-10-05T04:50:31.219Z,96928.15
2018-10-05T04:53:00.673Z,96925.86
2018-10-05T04:55:29.080Z,96928.30
2018-10-05T04:57:57.362Z,96926.42
2018-10-05T05:00:25.678Z,96923.70
2018-10-05T05:02:54.058Z,96925.09
2018-10-05T05:05:22.485Z,96925.98
2018-10-05T05:07:51.042Z,96936.40
2018-10-05T05:10:19.385Z,96932.92
2018-10-05T05:12:47.762Z,96927.98
2018-10-05T05:15:17.106Z,96935.91
2018-10-05T05:17:45.433Z,96940.78
2018-10-05T05:20:13.818Z,96933.77
2018-10-05T05:22:43.306Z,96927.86
2018-10-05T05:25:11.690Z,96930.72
2018-10-05T05:27:40.100Z,96941.47
2018-10-05T05:30:08.675Z,96935.20
2018-10-05T05:32:37.030Z,96941.47
2018-10-05T05:35:05.462Z,96944.30
2018-10-05T05:37:33.822Z,96947.30
2018-10-05T05:40:02.170Z,96948.55
2018-10-05T05:42:30.451Z,96951.27
2018-10-05T05:44:58.854Z,96954.23
2018-10-05T05:47:27.158Z,96954.16
2018-10-05T05:49:55.451Z,96953.59
2018-10-05T05:52:23.786Z,96963.88
2018-10-05T05:54:52.208Z,96967.72
2018-10-05T05:57:20.483Z,96966.95
2018-10-05T05:59:48.778Z,96965.06
2018-10-05T06:02:17.180Z,96967.56
2018-10-05T06:04:45.462Z,96959.78
2018-10-05T06:07:13.926Z,96967.99
2018-10-05T06:09:42.190Z,96962.75
2018-10-05T06:12:10.694Z,96963.81
2018-10-05T06:14:39.086Z,96965.06
2018-10-05T06:17:07.546Z,96967.08
2018-10-05T06:19:36.036Z,96970.36
2018-10-05T06:22:04.672Z,96961.75
2018-10-05T06:24:32.985Z,96964.64
2018-10-05T06:27:01.366Z,96959.16
2018-10-05T06:29:29.666Z,96957.52
2018-10-05T06:31:58.026Z,96956.94
2018-10-05T06:34:26.414Z,96960.28
2018-10-05T06:36:54.978Z,96959.66
2018-10-05T06:39:23.258Z,96961.81
2018-10-05T06:41:51.705Z,96953.55
2018-10-05T06:44:20.226Z,96957.36
2018-10-05T06:46:48.516Z,96953.70
2018-10-05T06:49:16.979Z,96955.23
2018-10-05T06:51:45.418Z,96960.17
2018-10-05T06:54:13.738Z,96959.14
2018-10-05T06:56:42.134Z,96965.53
2018-10-05T06:59:10.853Z,96956.37
2018-10-05T07:01:39.350Z,96955.55
2018-10-05T07:04:07.878Z,96951.61
2018-10-05T07:06:36.556Z,96952.16
2018-10-05T07:09:06.486Z,96944.16
2018-10-05T07:11:34.973Z,96941.42
2018-10-05T07:14:03.370Z,96942.84
2018-10-05T07:16:31.791Z,96939.07
2018-10-05T07:19:00.159Z,96942.77
2018-10-05T07:21:29.007Z,96943.48
2018-10-05T07:23:57.330Z,96941.52
2018-10-05T07:26:25.638Z,96939.56
2018-10-05T07:28:54.322Z,96944.11
2018-10-05T07:31:22.690Z,96945.33
2018-10-05T07:33:51.104Z,96947.70
2018-10-05T07:36:19.872Z,96947.73
2018-10-05T07:38:48.226Z,96943.50
2018-10-05T07:41:16.629Z,96946.67
2018-10-05T07:43:45.008Z,96950.35
2018-10-05T07:46:13.441Z,96944.55
2018-10-05T07:48:41.708Z,96947.55
2018-10-05T07:51:10.043Z,96948.20
2018-10-05T07:53:38.478Z,96941.59
2018-10-05T07:56:07.184Z,96950.88
2018-10-05T07:58:35.626Z,96955.52
2018-10-05T08:01:03.945Z,96950.86
2018-10-05T08:03:32.241Z,96943.55
2018-10-05T08:06:00.610Z,96942.72
2018-10-05T08:08:28.963Z,96944.37
2018-10-05T08:10:57.287Z,96934.38
2018-10-05T08:13:25.661Z,96940.52
2018-10-05T08:15:53.997Z,96934.19
2018-10-05T08:18:22.383Z,96927.52
2018-10-05T08:20:50.819Z,96933.19
2018-10-05T08:23:19.141Z,96935.80
2018-10-05T08:25:47.525Z,96929.45
2018-10-05T08:28:16.688Z,96930.27
2018-10-05T08:30:45.169Z,96931.23
2018-10-05T08:33:13.497Z,96928.70
2018-10-05T08:35:42.064Z,96930.16
2018-10-05T08:38:10.378Z,96926.92
2018-10-05T08:40:38.707Z,96931.20
2018-10-05T08:43:07.130Z,96922.86
2018-10-05T08:45:35.429Z,96918.97
2018-10-05T08:48:03.738Z,96920.27
2018-10-05T08:50:32.213Z,96918.73
2018-10-05T08:53:00.605Z,96919.52
2018-10-05T08:55:29.094Z,96921.33
2018-10-05T08:57:57.673Z,96916.66
2018-10-05T09:00:26.256Z,96916.10
2018-10-05T09:02:54.637Z,96909.75
2018-10-05T09:05:23.029Z,96907.70
2018-10-05T09:07:51.357Z,96911.30
2018-10-05T09:10:19.667Z,96912.25
2018-10-05T09:12:48.191Z,96906.70
2018-10-05T09:15:16.558Z,96906.16
2018-10-05T09:17:44.914Z,96902.92
2018-10-05T09:20:13.314Z,96892.34
2018-10-05T09:22:41.763Z,96888.81
2018-10-05T09:25:10.137Z,96879.09
2018-10-05T09:27:38.615Z,96876.33
2018-10-05T09:30:07.026Z,96880.38
2018-10-05T09:32:35.463Z,96876.58
2018-10-05T09:35:04.180Z,96876.33
2018-10-05T09:37:32.587Z,96861.39
2018-10-05T09:40:00.829Z,96860.33
2018-10-05T09:42:29.217Z,96858.58
2018-10-05T09:44:57.650Z,96853.00
2018-10-05T09:47:25.957Z,96856.42
2018-10-05T09:49:54.371Z,96844.55
2018-10-05T09:52:22.904Z,96839.83
2018-10-05T09:54:51.203Z,96837.81
2018-10-05T09:57:19.793Z,96830.30
2018-10-05T09:59:48.200Z,96836.20
2018-10-05T10:02:22.037Z,96833.09
2018-10-05T10:04:50.527Z,96826.45
2018-10-05T10:07:18.919Z,96833.50
2018-10-05T10:09:47.417Z,96829.67
2018-10-05T10:12:15.821Z,96827.92
2018-10-05T10:14:44.173Z,96826.43
2018-10-05T10:17:12.677Z,96824.97
2018-10-05T10:19:41.122Z,96820.83
2018-10-05T10:22:09.537Z,96814.08
2018-10-05T10:24:38.188Z,96812.00
2018-10-05T10:27:06.571Z,96812.67
2018-10-05T10:29:35.089Z,96816.94
2018-10-05T10:32:03.437Z,96811.55
2018-10-05T10:34:31.976Z,96807.87
2018-10-05T10:37:00.289Z,96805.91
2018-10-05T10:39:28.807Z,96808.72
2018-10-05T10:41:57.261Z,96815.94
2018-10-05T10:44:25.615Z,96819.30
2018-10-05T10:46:54.106Z,96809.30
2018-10-05T10:49:22.490Z,96804.68
2018-10-05T10:51:50.868Z,96802.02
2018-10-05T10:54:19.362Z,96797.89
2018-10-05T10:56:47.743Z,96788.93
2018-10-05T10:59:16.090Z,96786.16
2018-10-05T11:01:44.517Z,96781.38
2018-10-05T11:04:13.008Z,96774.56
2018-10-05T11:06:41.418Z,96773.41
2018-10-05T11:09:10.769Z,96777.83
2018-10-05T11:11:39.127Z,96778.44
2018-10-05T11:14:07.692Z,96772.47
2018-10-05T11:16:36.090Z,96770.68
2018-10-05T11:19:04.557Z,96763.73
2018-10-05T11:21:32.938Z,96751.73
2018-10-05T11:24:01.475Z,96751.95
2018-10-05T11:26:29.805Z,96743.55
2018-10-05T11:28:58.205Z,96743.20
2018-10-05T11:31:26.594Z,96737.05
2018-10-05T11:33:54.918Z,96732.36
2018-10-05T11:36:23.310Z,96735.89
2018-10-05T11:38:51.797Z,96721.70
2018-10-05T11:41:20.166Z,96717.92
2018-10-05T11:43:48.542Z,96711.99
2018-10-05T11:46:17.076Z,96709.34
2018-10-05T11:48:45.405Z,96699.20
2018-10-05T11:51:13.966Z,96700.41
2018-10-05T11:53:42.330Z,96697.64
2018-10-05T11:56:10.739Z,96686.17
2018-10-05T11:58:39.134Z,96687.61
2018-10-05T12:01:07.650Z,96691.94
2018-10-05T12:03:36.077Z,96684.95
2018-10-05T12:06:04.506Z,96678.70
2018-10-05T12:08:32.886Z,96674.67
2018-10-05T12:11:01.538Z,96671.30
2018-10-05T12:13:30.006Z,96674.05
2018-10-05T12:15:58.435Z,96669.73
2018-10-05T12:18:26.790Z,96668.66
2018-10-05T12:20:55.075Z,96672.69
2018-10-05T12:23:23.642Z,96668.02
2018-10-05T12:25:51.926Z,96657.45
2018-10-05T12:28:20.278Z,96657.50
2018-10-05T12:30:48.977Z,96650.46
2018-10-05T12:33:17.450Z,96649.98
2018-10-05T12:35:45.903Z,96645.50
2018-10-05T12:38:14.355Z,96642.86
2018-10-05T12:40:42.718Z,96638.59
2018-10-05T12:43:11.063Z,96635.33
2018-10-05T12:45:39.458Z,96636.02
2018-10-05T12:48:07.842Z,96636.20
2018-10-05T12:50:36.150Z,96632.52
2018-10-05T12:53:04.508Z,96634.77
2018-10-05T12:55:32.846Z,96626.27
2018-10-05T12:58:01.280Z,96616.27
2018-10-05T13:00:29.646Z,96610.70
2018-10-05T13:02:57.933Z,96610.28
2018-10-05T13:05:26.210Z,96611.54
2018-10-05T13:07:54.496Z,96608.44
2018-10-05T13:10:22.898Z,96605.51
2018-10-05T13:12:51.245Z,96600.05
2018-10-05T13:15:19.606Z,96598.78
2018-10-05T13:17:47.998Z,96591.86
2018-10-05T13:20:16.297Z,96592.67
2018-10-05T13:22:45.234Z,96589.24
2018-10-05T13:25:13.590Z,96579.69
2018-10-05T13:27:41.874Z,96577.84
2018-10-05T13:30:10.318Z,96573.38
2018-10-05T13:32:38.616Z,96575.30
2018-10-05T13:35:06.925Z,96574.52
2018-10-05T13:37:35.380Z,96574.52
2018-10-05T13:40:03.862Z,96561.62
2018-10-05T13:42:32.238Z,96564.13
2018-10-05T13:45:00.656Z,96557.48
2018-10-05T13:47:28.994Z,96550.20
2018-10-05T13:49:57.383Z,96548.63
2018-10-05T13:52:26.003Z,96548.55
2018-10-05T13:54:54.609Z,96548.63
2018-10-05T13:57:22.919Z,96542.39
2018-10-05T13:59:51.327Z,96544.58
2018-10-05T14:02:19.687Z,96537.30
2018-10-05T14:04:48.059Z,96537.83
2018-10-05T14:07:16.582Z,96546.97
2018-10-05T14:09:45.023Z,96546.43
2018-10-05T14:12:13.518Z,96540.91
2018-10-05T14:14:42.155Z,96537.78
2018-10-05T14:17:10.478Z,96523.98
2018-10-05T14:19:38.776Z,96527.26
2018-10-05T14:22:07.451Z,96527.83
2018-10-05T14:24:35.742Z,96515.69
2018-10-05T14:27:04.046Z,96518.36
2018-10-05T14:29:32.427Z,96516.20
2018-10-05T14:32:00.866Z,96520.75
2018-10-05T14:34:29.331Z,96522.44
2018-10-05T14:36:57.644Z,96516.94
2018-10-05T14:39:25.960Z,96515.89
2018-10-05T14:41:54.351Z,96519.44
2018-10-05T14:44:22.802Z,96516.60
2018-10-05T14:46:51.079Z,96523.78
2018-10-05T14:49:19.417Z,96515.32
2018-10-05T14:51:47.805Z,96509.31
2018-10-05T14:54:16.149Z,96500.55
2018-10-05T14:56:44.602Z,96503.09
2018-10-05T14:59:13.034Z,96502.22
2018-10-05T15:01:41.370Z,96505.45
2018-10-05T15:04:09.982Z,96500.56
2018-10-05T15:06:38.558Z,96497.52
2018-10-05T15:09:07.006Z,96489.91
2018-10-05T15:11:35.583Z,96485.78
2018-10-05T15:14:04.118Z,96484.59
2018-10-05T15:16:32.414Z,96482.09
2018-10-05T15:19:00.748Z,96483.36
2018-10-05T15:21:29.391Z,96490.57
2018-10-05T15:23:57.726Z,96493.89
2018-10-05T15:26:27.238Z,96489.70
2018-10-05T15:28:55.666Z,96496.97
2018-10-05T15:31:23.982Z,96489.61
2018-10-05T15:33:52.271Z,96487.03
2018-10-05T15:36:20.646Z,96486.18
2018-10-05T15:38:48.994Z,96482.33
2018-10-05T15:41:17.316Z,96477.63
2018-10-05T15:43:46.142Z,96480.47
2018-10-05T15:46:28.498Z,96477.38
2018-10-05T15:48:56.841Z,96474.52
2018-10-05T15:51:25.143Z,96474.09
2018-10-05T15:53:53.623Z,96480.95
2018-10-05T15:56:22.523Z,96474.86
2018-10-05T15:58:50.834Z,96467.88
2018-10-05T16:01:19.401Z,96466.66
2018-10-05T16:03:47.795Z,96465.42
2018-10-05T16:06:16.110Z,96457.47
2018-10-05T16:08:44.387Z,96453.76
2018-10-05T16:11:12.801Z,96446.63
2018-10-05T16:13:41.085Z,96452.13
2018-10-05T16:16:09.429Z,96452.92
2018-10-05T16:18:38.018Z,96450.80
2018-10-05T16:21:06.681Z,96448.36
2018-10-05T16:23:35.231Z,96451.08
2018-10-05T16:26:03.597Z,96453.20
2018-10-05T16:28:31.926Z,96445.09
2018-10-05T16:31:00.331Z,96444.08
2018-10-05T16:33:28.729Z,96442.44
2018-10-05T16:35:56.993Z,96439.54
2018-10-05T16:38:25.341Z,96439.05
2018-10-05T16:40:54.757Z,96440.70
2018-10-05T16:43:23.134Z,96440.39
2018-10-05T16:45:51.429Z,96437.80
2018-10-05T16:48:19.827Z,96443.66
2018-10-05T16:50:48.145Z,96438.59
2018-10-05T16:53:16.563Z,96438.36
2018-10-05T16:55:44.957Z,96441.84
2018-10-05T16:58:13.290Z,96437.58
2018-10-05T17:00:41.705Z,96429.30
2018-10-05T17:03:10.469Z,96425.86
2018-10-05T17:05:39.557Z,96420.99
2018-10-05T17:08:07.890Z,96422.84
2018-10-05T17:10:36.350Z,96419.31
2018-10-05T17:13:04.581Z,96415.99
2018-10-05T17:15:32.962Z,96422.34
2018-10-05T17:18:01.393Z,96426.11
2018-10-05T17:20:29.733Z,96425.64
2018-10-05T17:22:58.097Z,96424.96
2018-10-05T17:25:26.559Z,96423.75
2018-10-05T17:27:55.302Z,96425.20
2018-10-05T17:30:23.835Z,96426.20
2018-10-05T17:32:52.439Z,96425.19
2018-10-05T17:35:21.925Z,96419.81
2018-10-05T17:37:50.462Z,96425.72
2018-10-05T17:40:18.828Z,96414.13
2018-10-05T17:42:47.206Z,96408.20
2018-10-05T17:45:15.596Z,96412.78
2018-10-05T17:47:43.979Z,96410.02
2018-10-05T17:50:12.385Z,96407.56
2018-10-05T17:52:40.974Z,96402.53
2018-10-05T17:55:09.631Z,96408.81
2018-10-05T17:57:37.962Z,96401.09
2018-10-05T18:00:06.446Z,96402.42
2018-10-05T18:02:34.939Z,96397.51
2018-10-05T18:05:03.318Z,96401.20
2018-10-05T18:07:31.751Z,96407.09
2018-10-05T18:10:00.089Z,96410.78
2018-10-05T18:12:28.377Z,96411.87
2018-10-05T18:14:56.783Z,96407.39
2018-10-05T18:17:25.138Z,96414.20
2018-10-05T18:19:53.463Z,96410.78
2018-10-05T18:22:21.854Z,96411.59
2018-10-05T18:24:50.526Z,96408.82
2018-10-05T18:27:18.814Z,96413.43
2018-10-05T18:29:47.098Z,96409.72
2018-10-05T18:32:15.602Z,96403.06
2018-10-05T18:34:43.954Z,96393.92
2018-10-05T18:37:12.226Z,96390.22
2018-10-05T18:39:40.927Z,96395.44
2018-10-05T18:42:09.582Z,96390.00
2018-10-05T18:44:37.970Z,96387.22
2018-10-05T18:47:07.023Z,96378.66
2018-10-05T18:49:35.343Z,96387.06
2018-10-05T18:52:04.074Z,96379.25
2018-10-05T18:54:32.686Z,96381.52
2018-10-05T18:57:17.522Z,96382.30
2018-10-05T18:59:46.062Z,96381.88
2018-10-05T19:02:15.430Z,96384.64
2018-10-05T19:04:44.158Z,96390.30
2018-10-05T19:07:12.739Z,96398.41
2018-10-05T19:09:41.434Z,96390.13
2018-10-05T19:12:11.217Z,96387.08
2018-10-05T19:14:39.778Z,96387.06
2018-10-05T19:17:08.284Z,96390.56
2018-10-05T19:19:36.594Z,96390.81
2018-10-05T19:22:05.086Z,96380.53
2018-10-05T19:24:33.454Z,96375.72
2018-10-05T19:27:01.909Z,96375.09
2018-10-05T19:29:30.280Z,96375.45
2018-10-05T19:31:58.666Z,96377.95
2018-10-05T19:34:27.187Z,96375.88
2018-10-05T19:36:55.635Z,96374.81
2018-10-05T19:39:23.920Z,96389.55
2018-10-05T19:41:52.397Z,96389.98
2018-10-05T19:44:21.236Z,96389.23
2018-10-05T19:46:49.710Z,96390.81
2018-10-05T19:49:18.241Z,96387.33
2018-10-05T19:51:47.029Z,96383.28
2018-10-05T19:54:15.382Z,96389.64
2018-10-05T19:56:43.882Z,96384.42
2018-10-05T19:59:12.484Z,96379.39
2018-10-05T20:01:40.974Z,96394.75
2018-10-05T20:04:09.326Z,96393.73
2018-10-05T20:06:37.833Z,96389.88
2018-10-05T20:09:08.614Z,96391.41
2018-10-05T20:11:37.023Z,96388.11
2018-10-05T20:14:05.714Z,96390.45
2018-10-05T20:16:35.348Z,96387.93
2018-10-05T20:19:03.774Z,96388.48
2018-10-05T20:21:32.107Z,96388.19
2018-10-05T20:24:00.383Z,96386.16
2018-10-05T20:26:28.896Z,96380.05
2018-10-05T20:28:57.551Z,96377.28
2018-10-05T20:31:26.183Z,96374.98
2018-10-05T20:33:54.506Z,96391.21
2018-10-05T20:36:24.204Z,96391.30
2018-10-05T20:38:52.429Z,96392.42
2018-10-05T20:41:20.730Z,96391.34
2018-10-05T20:43:49.215Z,96392.03
2018-10-05T20:46:17.916Z,96396.39
2018-10-05T20:48:46.589Z,96391.52
2018-10-05T20:51:15.180Z,96390.13
2018-10-05T20:53:43.626Z,96392.36
2018-10-05T20:56:11.926Z,96397.05
2018-10-05T20:58:40.426Z,96390.15
2018-10-05T21:01:08.870Z,96386.91
2018-10-05T21:03:37.464Z,96379.95
2018-10-05T21:06:05.866Z,96388.77
2018-10-05T21:08:34.224Z,96383.48
2018-10-05T21:11:02.982Z,96383.03
2018-10-05T21:13:31.346Z,96385.81
2018-10-05T21:15:59.623Z,96385.91
2018-10-05T21:18:28.038Z,96385.20
2018-10-05T21:20:56.547Z,96393.73
2018-10-05T21:23:24.816Z,96390.65
2018-10-05T21:25:53.262Z,96386.66
2018-10-05T21:28:21.774Z,96396.66
2018-10-05T21:30:50.346Z,96402.31
2018-10-05T21:33:18.694Z,96394.79
2018-10-05T21:35:47.215Z,96394.69
2018-10-05T21:38:15.841Z,96394.87
2018-10-05T21:40:44.267Z,96384.80
2018-10-05T21:43:12.862Z,96382.96
2018-10-05T21:45:41.247Z,96379.61
2018-10-05T21:48:09.619Z,96375.14
2018-10-05T21:50:38.033Z,96375.56
2018-10-05T21:53:06.359Z,96378.45
2018-10-05T21:55:34.635Z,96384.41
2018-10-05T21:58:02.988Z,96377.18
2018-10-05T22:00:36.642Z,96379.71
2018-10-05T22:03:05.239Z,96373.83
2018-10-05T22:05:33.581Z,96368.88
2018-10-05T22:08:02.074Z,96373.42
2018-10-05T22:10:30.908Z,96377.92
2018-10-05T22:12:59.241Z,96377.23
2018-10-05T22:15:27.649Z,96375.11
2018-10-05T22:17:55.993Z,96371.30
2018-10-05T22:20:24.653Z,96371.64
2018-10-05T22:22:53.060Z,96371.36
2018-10-05T22:25:21.750Z,96371.77
2018-10-05T22:27:50.313Z,96368.36
2018-10-05T22:30:18.710Z,96364.30
2018-10-05T22:32:47.481Z,96364.98
2018-10-05T22:35:15.871Z,96362.92
2018-10-05T22:37:44.428Z,96358.58
2018-10-05T22:40:12.755Z,96366.03
2018-10-05T22:42:41.446Z,96361.52
2018-10-05T22:45:09.795Z,96362.75
2018-10-05T22:47:38.115Z,96360.55
2018-10-05T22:50:06.514Z,96350.92
2018-10-05T22:52:34.993Z,96356.46
2018-10-05T22:55:03.375Z,96354.42
2018-10-05T22:57:31.663Z,96354.24
2018-10-05T22:59:59.943Z,96343.52
2018-10-05T23:02:28.555Z,96347.47
2018-10-05T23:04:56.930Z,96353.08
2018-10-05T23:07:25.496Z,96351.75
2018-10-05T23:09:54.189Z,96357.45
2018-10-05T23:12:22.594Z,96354.03
2018-10-05T23:14:50.950Z,96354.00
2018-10-05T23:17:19.362Z,96344.49
2018-10-05T23:19:47.712Z,96339.67
2018-10-05T23:22:16.049Z,96336.95
2018-10-05T23:24:44.685Z,96332.12
2018-10-05T23:27:13.044Z,96333.88
2018-10-05T23:29:41.707Z,96326.87
2018-10-05T23:32:10.019Z,96330.76
2018-10-05T23:34:38.537Z,96332.09
2018-10-05T23:37:06.958Z,96337.48
2018-10-05T23:39:35.479Z,96334.78
2018-10-05T23:42:03.829Z,96340.30
2018-10-05T23:44:32.739Z,96338.30
2018-10-05T23:47:01.143Z,96342.11
2018-10-05T23:49:29.807Z,96339.66
2018-10-05T23:52:04.254Z,96340.99
2018-10-05T23:54:32.580Z,96337.17
2018-10-05T23:57:01.000Z,96339.49
2018-10-05T23:59:29.582Z,96336.53
